This is the latest recevied weather packets stored in our database for station/object DH8TOM-3. If no packets are shown the sender has not sent any weather packets the latest 10 day(s).
| Time | Temp. | Humidity | Pressure | Rain* | Wind** | Luminosity | Snow |
|---|---|---|---|---|---|---|---|
| 1777340201 | 10° C | 58% | 1021 hPa | 0 mm | - | - | - |
| 1777339899 | 10° C | 57% | 1021 hPa | 0 mm | - | - | - |
| 1777339297 | 10.56° C | 57% | 1021 hPa | 0 mm | - | - | - |
| 1777338997 | 10.56° C | 57% | 1021 hPa | 0 mm | - | - | - |
| 1777338696 | 10.56° C | 57% | 1020.9 hPa | 0 mm | - | - | - |
| 1777338395 | 10.56° C | 56% | 1021 hPa | 0 mm | - | - | - |
| 1777337793 | 10.56° C | 56% | 1020.9 hPa | 0 mm | - | - | - |
| 1777337491 | 10.56° C | 56% | 1020.9 hPa | 0 mm | - | - | - |
| 1777336890 | 10.56° C | 56% | 1020.8 hPa | 0 mm | - | - | - |
| 1777336589 | 10.56° C | 55% | 1020.8 hPa | 0 mm | - | - | - |
| 1777336288 | 10.56° C | 55% | 1020.8 hPa | 0 mm | - | - | - |
| 1777335987 | 11.11° C | 55% | 1020.7 hPa | 0 mm | - | - | - |
| 1777335686 | 11.11° C | 55% | 1020.7 hPa | 0 mm | - | - | - |
| 1777335385 | 11.11° C | 54% | 1020.6 hPa | 0 mm | - | - | - |
| 1777334782 | 11.11° C | 54% | 1020.7 hPa | 0 mm | - | - | - |
| 1777334482 | 11.11° C | 54% | 1020.7 hPa | 0 mm | - | - | - |
| 1777334181 | 11.67° C | 53% | 1020.7 hPa | 0 mm | - | - | - |
| 1777333579 | 11.67° C | 53% | 1020.7 hPa | 0 mm | - | - | - |
| 1777332375 | 11.67° C | 52% | 1020.6 hPa | 0 mm | - | - | - |
| 1777329366 | 12.22° C | 53% | 1020.7 hPa | 0 mm | - | - | - |
| 1777311606 | 16.11° C | 41% | 1020.1 hPa | 0 mm | - | - | - |
| 1777310402 | 16.67° C | 41% | 1020.1 hPa | 0 mm | - | - | - |
| 1777310101 | 16.67° C | 42% | 1020.1 hPa | 0 mm | - | - | - |
| 1777307693 | 17.22° C | 39% | 1020.3 hPa | 0 mm | - | - | - |
| 1777306188 | 17.22° C | 39% | 1020.4 hPa | 0 mm | - | - | - |
* Rain latest hour (hover to see other rain measurements)
** Current wind speed in m/s (hover to see current wind gust speed)